Sparta, Indiana
Current Conditions -  °F | °C
As of 11:53 AM on Friday 24 Oct 2014 (Local Time) from KGSH Reporting Station
Overcast Overcast  
Wind Chill: 55°   Ceiling: 2200
Heat Index: 55°   Visibility: 8mi
Dew Point: 48°   Wind: 6mph
Humidity: 77%   Direction: 230°SW
Pressure: 30.08"   Gusts: NA
Location:  41.3805°N, 85.517°W
Report Text: KGSH 241553Z AUTO 23005KT 8SM OVC022 13/09 A3008 RMK AO2 SLP190 T01280089
Loading
Personal Weather Stations






























Interactive Weather Map
Tropical Storm Tracking
New forecast layout! Learn more

10-Day Weather Forecast

Advertisements
Track Severe Weather on mobile